Time;durP1;ratioP1;P1;durP2;ratioP2;P2;SDS_P1;SDS_P2;PMS_P1;PMS_P2;Temp;Humidity;BMP_temperature;BMP_pressure;BME280_temperature;BME280_humidity;BME280_pressure;Samples;Min_cycle;Max_cycle;Signal;HPM_P1;HPM_P2
2023/09/29 00:01:39;;;;;;;;;;;22.70;59.50;;;;;;4990076;28;19984;-61
2023/09/29 00:04:06;;;;;;;;;;;22.70;59.50;;;;;;4991826;28;19933;-60
2023/09/29 00:06:33;;;;;;;;;;;22.70;59.50;;;;;;4989887;28;19930;-61
2023/09/29 00:09:00;;;;;;;;;;;22.80;59.50;;;;;;4991059;28;20000;-61
2023/09/29 00:11:27;;;;;;;;;;;22.70;59.50;;;;;;4990215;28;19980;-61
2023/09/29 00:13:55;;;;;;;;;;;22.70;59.50;;;;;;4992214;28;19934;-61
2023/09/29 00:16:22;;;;;;;;;;;22.70;59.50;;;;;;4990603;28;19926;-61
2023/09/29 00:18:48;;;;;;;;;;;22.70;59.50;;;;;;4986829;28;19929;-60
2023/09/29 00:21:15;;;;;;;;;;;22.70;59.50;;;;;;4991673;28;19926;-61
2023/09/29 00:23:42;;;;;;;;;;;22.70;59.50;;;;;;4990680;28;19926;-61
2023/09/29 00:26:09;;;;;;;;;;;22.70;59.50;;;;;;4989064;28;19992;-61
2023/09/29 00:28:36;;;;;;;;;;;22.70;59.40;;;;;;4991116;28;19929;-61
2023/09/29 00:31:06;;;;;;;;;;;22.70;59.50;;;;;;4990200;28;19934;-61
2023/09/29 00:33:33;;;;;;;;;;;22.70;59.50;;;;;;5006944;28;19929;-61
2023/09/29 00:36:00;;;;;;;;;;;22.70;59.50;;;;;;4986653;28;19934;-61
2023/09/29 00:38:27;;;;;;;;;;;22.70;59.40;;;;;;4990209;28;19993;-61
2023/09/29 00:40:54;;;;;;;;;;;22.70;59.50;;;;;;4989642;28;19926;-60
2023/09/29 00:43:21;;;;;;;;;;;22.70;59.40;;;;;;4990649;28;19933;-60
2023/09/29 00:45:48;;;;;;;;;;;22.70;59.40;;;;;;4989365;28;19929;-60
2023/09/29 00:48:17;;;;;;;;;;;22.70;59.40;;;;;;4990983;28;19998;-61
2023/09/29 00:50:44;;;;;;;;;;;22.70;59.40;;;;;;4983918;28;19940;-61
2023/09/29 00:53:14;;;;;;;;;;;22.70;59.40;;;;;;4986024;28;19932;-60
2023/09/29 00:55:41;;;;;;;;;;;22.70;59.40;;;;;;5006470;28;19930;-61
2023/09/29 00:58:08;;;;;;;;;;;22.70;59.40;;;;;;5003941;28;19925;-61
2023/09/29 01:00:37;;;;;;;;;;;22.70;59.40;;;;;;4989876;28;19981;-61
2023/09/29 01:03:05;;;;;;;;;;;22.70;59.40;;;;;;4990215;28;19934;-61
2023/09/29 01:05:35;;;;;;;;;;;22.70;59.40;;;;;;4989895;28;19930;-61
2023/09/29 01:08:08;;;;;;;;;;;22.70;59.40;;;;;;4989007;28;19973;-61
2023/09/29 01:10:35;;;;;;;;;;;22.70;59.30;;;;;;4989643;28;20012;-61
2023/09/29 01:13:02;;;;;;;;;;;22.70;59.40;;;;;;4989233;28;19934;-61
2023/09/29 01:15:29;;;;;;;;;;;22.70;59.40;;;;;;4988298;28;19926;-60
2023/09/29 01:17:55;;;;;;;;;;;22.70;59.40;;;;;;4991693;28;19933;-60
2023/09/29 01:20:27;;;;;;;;;;;22.70;59.40;;;;;;4990087;28;19934;-61
2023/09/29 01:22:55;;;;;;;;;;;22.70;59.40;;;;;;4990623;28;19930;-61
2023/09/29 01:25:23;;;;;;;;;;;22.70;59.40;;;;;;4992911;28;19933;-60
2023/09/29 01:27:50;;;;;;;;;;;22.70;59.40;;;;;;4985795;28;19938;-61
2023/09/29 01:30:18;;;;;;;;;;;22.70;59.40;;;;;;5000336;28;19926;-60
2023/09/29 01:32:46;;;;;;;;;;;22.70;59.40;;;;;;4993740;28;19977;-61
2023/09/29 01:35:15;;;;;;;;;;;22.70;59.40;;;;;;4993650;28;19976;-60
2023/09/29 01:37:42;;;;;;;;;;;22.70;59.40;;;;;;4995030;28;20020;-61
2023/09/29 01:40:10;;;;;;;;;;;22.70;59.40;;;;;;4993734;28;19926;-61
2023/09/29 01:42:39;;;;;;;;;;;22.70;59.40;;;;;;4994542;28;19926;-61
2023/09/29 01:45:08;;;;;;;;;;;22.70;59.40;;;;;;4993613;28;19933;-61
2023/09/29 01:47:36;;;;;;;;;;;22.70;59.40;;;;;;4993961;28;19925;-61
2023/09/29 01:50:04;;;;;;;;;;;22.70;59.40;;;;;;4994490;28;19932;-61
2023/09/29 01:52:31;;;;;;;;;;;22.70;59.40;;;;;;4991836;28;19925;-61
2023/09/29 01:54:58;;;;;;;;;;;22.70;59.40;;;;;;4993176;28;19933;-61
2023/09/29 01:57:25;;;;;;;;;;;22.70;59.40;;;;;;4994091;28;19930;-61
2023/09/29 01:59:54;;;;;;;;;;;22.70;59.40;;;;;;4993624;28;19981;-61
2023/09/29 02:02:20;;;;;;;;;;;22.70;59.40;;;;;;4993805;28;20069;-61
2023/09/29 02:04:47;;;;;;;;;;;22.70;59.40;;;;;;4993247;28;19930;-61
2023/09/29 02:07:14;;;;;;;;;;;22.70;59.30;;;;;;4988784;28;20033;-61
2023/09/29 02:09:42;;;;;;;;;;;22.70;59.30;;;;;;4994407;28;19993;-61
2023/09/29 02:12:10;;;;;;;;;;;22.70;59.30;;;;;;4991789;28;19930;-61
2023/09/29 02:14:37;;;;;;;;;;;22.70;59.30;;;;;;4992497;28;19961;-61
2023/09/29 02:17:06;;;;;;;;;;;22.70;59.30;;;;;;4992126;28;19987;-61
2023/09/29 02:19:35;;;;;;;;;;;22.70;59.30;;;;;;4994274;28;19960;-61
2023/09/29 02:22:02;;;;;;;;;;;22.70;59.20;;;;;;4992883;28;19926;-61
2023/09/29 02:24:29;;;;;;;;;;;22.70;59.20;;;;;;4992554;28;19988;-61
2023/09/29 02:26:56;;;;;;;;;;;22.70;59.20;;;;;;4990359;28;19925;-61
2023/09/29 02:29:23;;;;;;;;;;;22.70;59.30;;;;;;4993098;28;19925;-61
2023/09/29 02:31:50;;;;;;;;;;;22.70;59.20;;;;;;4992976;28;19925;-61
2023/09/29 02:34:18;;;;;;;;;;;22.70;59.20;;;;;;4993771;28;19956;-61
2023/09/29 02:36:45;;;;;;;;;;;22.70;59.20;;;;;;4991270;28;19930;-61
2023/09/29 02:39:11;;;;;;;;;;;22.70;59.20;;;;;;4993252;28;19934;-61
2023/09/29 02:41:38;;;;;;;;;;;22.70;59.20;;;;;;4989952;28;20112;-61
2023/09/29 02:44:07;;;;;;;;;;;22.70;59.20;;;;;;4993205;28;19929;-61
2023/09/29 02:46:33;;;;;;;;;;;22.70;59.10;;;;;;4991562;28;20008;-61
2023/09/29 02:49:00;;;;;;;;;;;22.70;59.10;;;;;;4993972;28;19930;-61
2023/09/29 02:51:28;;;;;;;;;;;22.70;59.20;;;;;;4993174;28;19945;-61
2023/09/29 02:53:55;;;;;;;;;;;22.70;59.10;;;;;;4992763;28;19930;-61
2023/09/29 02:56:23;;;;;;;;;;;22.70;59.20;;;;;;4988774;28;19925;-61
2023/09/29 02:58:54;;;;;;;;;;;22.70;59.20;;;;;;4992736;28;19989;-61
2023/09/29 03:01:22;;;;;;;;;;;22.70;59.10;;;;;;4992805;28;19980;-61
2023/09/29 03:03:54;;;;;;;;;;;22.70;59.20;;;;;;5008487;28;19934;-61
2023/09/29 03:06:21;;;;;;;;;;;22.70;59.20;;;;;;4991956;28;19926;-60
2023/09/29 03:08:54;;;;;;;;;;;22.60;59.00;;;;;;4992096;28;19929;-61
2023/09/29 03:11:21;;;;;;;;;;;22.70;59.10;;;;;;4990167;28;19926;-61
2023/09/29 03:13:47;;;;;;;;;;;22.70;59.10;;;;;;5005421;28;19930;-60
2023/09/29 03:16:14;;;;;;;;;;;22.60;59.00;;;;;;4992831;28;19933;-61
2023/09/29 03:18:41;;;;;;;;;;;22.70;59.10;;;;;;4992182;28;19925;-61
2023/09/29 03:21:09;;;;;;;;;;;22.60;59.00;;;;;;4988535;28;19926;-61
2023/09/29 03:23:36;;;;;;;;;;;22.70;59.10;;;;;;5007979;28;19965;-61
2023/09/29 03:26:04;;;;;;;;;;;22.60;59.00;;;;;;4989913;28;19929;-61
2023/09/29 03:28:31;;;;;;;;;;;22.60;59.00;;;;;;5006026;28;19938;-61
2023/09/29 03:31:01;;;;;;;;;;;22.60;59.00;;;;;;4994933;28;19930;-61
2023/09/29 03:33:29;;;;;;;;;;;22.60;59.00;;;;;;4991834;28;20031;-61
2023/09/29 03:35:56;;;;;;;;;;;22.60;59.00;;;;;;4991493;28;19940;-61
2023/09/29 03:38:25;;;;;;;;;;;22.70;59.00;;;;;;4990918;28;19948;-61
2023/09/29 03:40:52;;;;;;;;;;;22.60;59.00;;;;;;4991943;28;19933;-61
2023/09/29 03:43:21;;;;;;;;;;;22.60;59.00;;;;;;4991678;28;19925;-61
2023/09/29 03:45:49;;;;;;;;;;;22.60;58.90;;;;;;4991256;28;20020;-61
2023/09/29 03:48:16;;;;;;;;;;;22.60;58.90;;;;;;4991719;28;19984;-61
2023/09/29 03:50:43;;;;;;;;;;;22.60;58.90;;;;;;4992696;28;19992;-61
2023/09/29 03:53:10;;;;;;;;;;;22.60;59.00;;;;;;4992718;28;19930;-61
2023/09/29 03:55:36;;;;;;;;;;;22.60;58.90;;;;;;4989331;28;19933;-60
2023/09/29 03:58:03;;;;;;;;;;;22.70;59.00;;;;;;4991379;28;20294;-61
2023/09/29 04:00:31;;;;;;;;;;;22.60;58.90;;;;;;4991889;28;19926;-61
2023/09/29 04:02:58;;;;;;;;;;;22.60;58.90;;;;;;4991574;28;20051;-61
2023/09/29 04:05:25;;;;;;;;;;;22.60;58.90;;;;;;4991389;28;19925;-61
2023/09/29 04:07:51;;;;;;;;;;;22.70;58.90;;;;;;4992196;28;19929;-61
2023/09/29 04:10:17;;;;;;;;;;;22.60;58.80;;;;;;4988665;28;19933;-61
2023/09/29 04:12:44;;;;;;;;;;;22.60;58.90;;;;;;4990117;28;19937;-61
2023/09/29 04:15:11;;;;;;;;;;;22.60;58.90;;;;;;4991074;28;19926;-61
2023/09/29 04:17:39;;;;;;;;;;;22.60;58.90;;;;;;5002580;28;19926;-61
2023/09/29 04:20:07;;;;;;;;;;;22.60;58.90;;;;;;5006283;28;19929;-61
2023/09/29 04:22:34;;;;;;;;;;;22.60;58.90;;;;;;4991561;28;19930;-61
2023/09/29 04:25:01;;;;;;;;;;;22.60;58.90;;;;;;4991376;28;19989;-61
2023/09/29 04:27:28;;;;;;;;;;;22.60;58.90;;;;;;4991029;28;20061;-60
2023/09/29 04:29:55;;;;;;;;;;;22.60;58.90;;;;;;5006433;28;20033;-61
2023/09/29 04:32:21;;;;;;;;;;;22.60;58.90;;;;;;5007765;28;19926;-61
2023/09/29 04:34:49;;;;;;;;;;;22.60;58.90;;;;;;4989763;28;19930;-61
2023/09/29 04:37:16;;;;;;;;;;;22.60;58.90;;;;;;4991401;28;19930;-61
2023/09/29 04:39:43;;;;;;;;;;;22.60;58.90;;;;;;4991693;28;19957;-61
2023/09/29 04:42:10;;;;;;;;;;;22.60;58.90;;;;;;4991024;28;19925;-61
2023/09/29 04:44:37;;;;;;;;;;;22.60;58.90;;;;;;4990831;28;19937;-61
2023/09/29 04:47:04;;;;;;;;;;;22.60;58.90;;;;;;5007599;28;19933;-61
2023/09/29 04:49:31;;;;;;;;;;;22.60;58.90;;;;;;4991300;28;19932;-61
2023/09/29 04:51:59;;;;;;;;;;;22.60;58.90;;;;;;4991265;28;19926;-61
2023/09/29 04:54:26;;;;;;;;;;;22.60;58.90;;;;;;4991065;28;19968;-60
2023/09/29 04:56:53;;;;;;;;;;;22.60;58.90;;;;;;4990331;28;19933;-61
2023/09/29 04:59:19;;;;;;;;;;;22.60;58.90;;;;;;4991471;28;20016;-61
2023/09/29 05:01:46;;;;;;;;;;;22.60;58.90;;;;;;4992181;28;19979;-61
2023/09/29 05:04:13;;;;;;;;;;;22.60;58.90;;;;;;4994883;28;19973;-61
2023/09/29 05:06:40;;;;;;;;;;;22.60;58.90;;;;;;4993183;28;19930;-61
2023/09/29 05:09:09;;;;;;;;;;;22.60;58.80;;;;;;4994884;28;19934;-61
2023/09/29 05:11:36;;;;;;;;;;;22.60;58.90;;;;;;5010051;28;19926;-61
2023/09/29 05:14:03;;;;;;;;;;;22.60;58.80;;;;;;5009360;28;19980;-61
2023/09/29 05:16:30;;;;;;;;;;;22.60;58.80;;;;;;4993209;28;19926;-61
2023/09/29 05:18:58;;;;;;;;;;;22.60;58.90;;;;;;4995127;28;19938;-61
2023/09/29 05:21:26;;;;;;;;;;;22.60;58.90;;;;;;5010901;28;19993;-61
2023/09/29 05:23:53;;;;;;;;;;;22.60;58.90;;;;;;4994379;28;19929;-61
2023/09/29 05:26:21;;;;;;;;;;;22.60;58.90;;;;;;4993880;28;19933;-61
2023/09/29 05:28:49;;;;;;;;;;;22.60;58.90;;;;;;4994339;28;19930;-61
2023/09/29 05:31:16;;;;;;;;;;;22.60;58.90;;;;;;4994964;28;19934;-61
2023/09/29 05:33:43;;;;;;;;;;;22.60;58.90;;;;;;4991521;28;19926;-61
2023/09/29 05:36:10;;;;;;;;;;;22.60;58.90;;;;;;4994282;28;19980;-61
2023/09/29 05:38:37;;;;;;;;;;;22.60;58.90;;;;;;4991907;28;19934;-61
2023/09/29 05:41:03;;;;;;;;;;;22.60;58.90;;;;;;4995122;28;19926;-61
2023/09/29 05:43:32;;;;;;;;;;;22.60;58.90;;;;;;4993761;28;19941;-61
2023/09/29 05:45:59;;;;;;;;;;;22.60;58.90;;;;;;5009595;28;19926;-61
2023/09/29 05:48:26;;;;;;;;;;;22.60;59.00;;;;;;4990860;28;19972;-61
2023/09/29 05:50:52;;;;;;;;;;;22.60;59.00;;;;;;4996980;28;20032;-62
2023/09/29 05:53:19;;;;;;;;;;;22.60;59.00;;;;;;4993534;28;19925;-61
2023/09/29 05:55:46;;;;;;;;;;;22.60;59.00;;;;;;4992728;28;19957;-61
2023/09/29 05:58:13;;;;;;;;;;;22.60;59.00;;;;;;4993289;28;19961;-61
2023/09/29 06:00:41;;;;;;;;;;;22.60;59.00;;;;;;5009765;28;19930;-61
2023/09/29 06:03:08;;;;;;;;;;;22.60;59.00;;;;;;4992155;28;19980;-61
2023/09/29 06:05:35;;;;;;;;;;;22.60;59.00;;;;;;4989453;28;19926;-61
2023/09/29 06:08:02;;;;;;;;;;;22.60;59.00;;;;;;4992572;28;19976;-61
2023/09/29 06:10:29;;;;;;;;;;;22.60;59.00;;;;;;4991828;28;19984;-61
2023/09/29 06:12:57;;;;;;;;;;;22.60;59.10;;;;;;4990912;28;19930;-61
2023/09/29 06:15:24;;;;;;;;;;;22.60;59.00;;;;;;4988674;28;19989;-61
2023/09/29 06:17:52;;;;;;;;;;;22.60;59.00;;;;;;4990446;28;19925;-60
2023/09/29 06:20:19;;;;;;;;;;;22.60;59.10;;;;;;5007902;28;19941;-60
2023/09/29 06:22:46;;;;;;;;;;;22.60;59.10;;;;;;4992375;28;19953;-61
2023/09/29 06:25:13;;;;;;;;;;;22.60;59.10;;;;;;4990986;28;19926;-61
2023/09/29 06:27:39;;;;;;;;;;;22.60;59.10;;;;;;4992828;28;19934;-62
2023/09/29 06:30:07;;;;;;;;;;;22.60;59.10;;;;;;4989080;28;19930;-62
2023/09/29 06:32:33;;;;;;;;;;;22.60;59.10;;;;;;4992910;28;19926;-62
2023/09/29 06:35:02;;;;;;;;;;;22.60;59.10;;;;;;4990671;28;19933;-60
2023/09/29 06:37:29;;;;;;;;;;;22.60;59.20;;;;;;4989593;28;19926;-62
2023/09/29 06:39:56;;;;;;;;;;;22.60;59.20;;;;;;4989620;28;19926;-61
2023/09/29 06:42:23;;;;;;;;;;;22.60;59.20;;;;;;4990359;28;19926;-61
2023/09/29 06:44:50;;;;;;;;;;;22.60;59.20;;;;;;4990396;28;20017;-63
2023/09/29 06:47:17;;;;;;;;;;;22.70;59.30;;;;;;4988530;28;19980;-62
2023/09/29 06:49:44;;;;;;;;;;;22.70;59.30;;;;;;5007017;28;19925;-62
2023/09/29 06:52:12;;;;;;;;;;;22.60;59.20;;;;;;4992642;28;19932;-61
2023/09/29 06:54:39;;;;;;;;;;;22.70;59.30;;;;;;4989175;28;19973;-62
2023/09/29 06:57:06;;;;;;;;;;;22.70;59.30;;;;;;4988762;28;19926;-62
2023/09/29 06:59:32;;;;;;;;;;;22.70;59.30;;;;;;4990156;28;19934;-61
2023/09/29 07:01:59;;;;;;;;;;;22.70;59.30;;;;;;4991376;28;19934;-61
2023/09/29 07:04:26;;;;;;;;;;;22.70;59.40;;;;;;4989805;28;19926;-62
2023/09/29 07:06:53;;;;;;;;;;;22.70;59.30;;;;;;4987023;28;19930;-60
2023/09/29 07:09:22;;;;;;;;;;;22.70;59.30;;;;;;4988166;28;19933;-61
2023/09/29 07:11:48;;;;;;;;;;;22.70;59.30;;;;;;4989486;28;20020;-61
2023/09/29 07:14:15;;;;;;;;;;;22.70;59.30;;;;;;4989810;28;19937;-62
2023/09/29 07:16:43;;;;;;;;;;;22.70;59.30;;;;;;4991858;28;19926;-61
2023/09/29 07:19:12;;;;;;;;;;;22.70;59.30;;;;;;4989523;28;19932;-62
2023/09/29 07:21:40;;;;;;;;;;;22.70;59.40;;;;;;5005617;28;19989;-63
2023/09/29 07:24:07;;;;;;;;;;;22.70;59.40;;;;;;4990344;28;19929;-61
2023/09/29 07:26:35;;;;;;;;;;;22.70;59.40;;;;;;4990382;28;19944;-62
2023/09/29 07:29:04;;;;;;;;;;;22.70;59.30;;;;;;4990902;28;19926;-62
2023/09/29 07:31:34;;;;;;;;;;;22.80;59.40;;;;;;4990076;28;19926;-61
2023/09/29 07:34:01;;;;;;;;;;;22.80;59.40;;;;;;4988694;28;20012;-61
2023/09/29 07:36:30;;;;;;;;;;;22.80;59.40;;;;;;4987760;28;19988;-61
2023/09/29 07:38:57;;;;;;;;;;;22.80;59.50;;;;;;4989634;28;19932;-61
2023/09/29 07:41:24;;;;;;;;;;;22.80;59.40;;;;;;5004130;28;20024;-60
2023/09/29 07:43:52;;;;;;;;;;;22.80;59.40;;;;;;4989140;28;19941;-62
2023/09/29 07:46:19;;;;;;;;;;;22.80;59.40;;;;;;5004829;28;19934;-61
2023/09/29 07:48:46;;;;;;;;;;;22.80;59.40;;;;;;4989472;28;20382;-61
2023/09/29 07:51:13;;;;;;;;;;;22.80;59.40;;;;;;4989077;28;19972;-63
2023/09/29 07:53:40;;;;;;;;;;;22.80;59.40;;;;;;4987693;28;19930;-62
2023/09/29 07:56:07;;;;;;;;;;;22.80;59.40;;;;;;4989945;28;19975;-62
2023/09/29 07:58:33;;;;;;;;;;;22.80;59.40;;;;;;4989704;28;19968;-62
2023/09/29 08:01:02;;;;;;;;;;;22.80;59.40;;;;;;4988015;28;19960;-62
2023/09/29 08:03:29;;;;;;;;;;;22.80;59.40;;;;;;5001747;28;20395;-62
2023/09/29 08:05:55;;;;;;;;;;;22.80;59.40;;;;;;4988677;28;19937;-61
2023/09/29 08:08:24;;;;;;;;;;;22.90;59.50;;;;;;4991168;28;19930;-62
2023/09/29 08:10:51;;;;;;;;;;;22.80;59.30;;;;;;4990796;28;19993;-61
2023/09/29 08:13:18;;;;;;;;;;;22.90;59.40;;;;;;4986531;28;19933;-61
2023/09/29 08:15:46;;;;;;;;;;;22.90;59.40;;;;;;4984257;28;19932;-61
2023/09/29 08:18:14;;;;;;;;;;;22.90;59.50;;;;;;4996502;28;19925;-62
2023/09/29 08:20:42;;;;;;;;;;;22.90;59.40;;;;;;4983137;28;19941;-61
2023/09/29 08:23:09;;;;;;;;;;;22.90;59.40;;;;;;4979048;28;20020;-62
2023/09/29 08:25:35;;;;;;;;;;;22.90;59.40;;;;;;4972946;28;19929;-63
2023/09/29 08:28:03;;;;;;;;;;;22.90;59.40;;;;;;4973925;28;19945;-62
2023/09/29 08:30:30;;;;;;;;;;;22.90;59.40;;;;;;4973493;28;20052;-62
2023/09/29 08:32:56;;;;;;;;;;;22.90;59.50;;;;;;4973165;28;19926;-62
2023/09/29 08:35:27;;;;;;;;;;;22.90;59.40;;;;;;4974139;28;20750;-62
2023/09/29 08:37:54;;;;;;;;;;;22.90;59.40;;;;;;4973507;28;19956;-61
2023/09/29 08:40:21;;;;;;;;;;;22.90;59.40;;;;;;4987457;28;19925;-61
2023/09/29 08:42:50;;;;;;;;;;;22.90;59.40;;;;;;4987561;28;19930;-62
2023/09/29 08:45:17;;;;;;;;;;;22.90;59.50;;;;;;4988452;28;19943;-62
2023/09/29 08:47:45;;;;;;;;;;;22.90;59.40;;;;;;4986070;28;19980;-61
2023/09/29 08:50:13;;;;;;;;;;;22.90;59.40;;;;;;4988918;28;19930;-62
2023/09/29 08:52:44;;;;;;;;;;;23.00;59.50;;;;;;4990315;28;19987;-62
2023/09/29 08:55:12;;;;;;;;;;;22.90;60.10;;;;;;4990673;28;19932;-62
2023/09/29 08:57:39;;;;;;;;;;;22.90;59.50;;;;;;4997839;28;19995;-61
2023/09/29 09:00:07;;;;;;;;;;;23.00;59.60;;;;;;4989910;28;20017;-62
2023/09/29 09:02:33;;;;;;;;;;;23.00;59.60;;;;;;5005542;28;19930;-61
2023/09/29 09:05:00;;;;;;;;;;;23.00;59.60;;;;;;4985375;28;19929;-61
2023/09/29 09:07:27;;;;;;;;;;;23.00;59.60;;;;;;4987154;28;19926;-60
2023/09/29 09:09:57;;;;;;;;;;;23.00;59.60;;;;;;4987937;28;19953;-61
2023/09/29 09:12:31;;;;;;;;;;;23.00;59.60;;;;;;4989470;28;19926;-61
2023/09/29 09:14:58;;;;;;;;;;;23.00;59.60;;;;;;4985955;28;19933;-61
2023/09/29 09:17:25;;;;;;;;;;;23.00;59.60;;;;;;4985683;28;19926;-61
2023/09/29 09:19:52;;;;;;;;;;;23.00;59.70;;;;;;4989383;28;19930;-61
2023/09/29 09:22:22;;;;;;;;;;;23.00;59.60;;;;;;4987355;28;19930;-60
2023/09/29 09:24:49;;;;;;;;;;;23.00;59.60;;;;;;4987557;28;19926;-60
2023/09/29 09:27:17;;;;;;;;;;;23.00;59.60;;;;;;4986057;28;19933;-61
2023/09/29 09:29:44;;;;;;;;;;;23.10;59.70;;;;;;4989210;28;19933;-61
2023/09/29 09:32:11;;;;;;;;;;;23.00;59.60;;;;;;4989288;28;19926;-61
2023/09/29 09:34:39;;;;;;;;;;;23.00;59.60;;;;;;5000995;28;20012;-61
2023/09/29 09:37:07;;;;;;;;;;;23.00;59.70;;;;;;4985901;28;19932;-62
2023/09/29 09:39:34;;;;;;;;;;;23.00;59.60;;;;;;4989334;28;19930;-61
2023/09/29 09:42:04;;;;;;;;;;;23.00;59.70;;;;;;4987075;28;19926;-61
2023/09/29 09:44:34;;;;;;;;;;;23.00;59.70;;;;;;4989715;28;19933;-62
2023/09/29 09:47:02;;;;;;;;;;;23.10;59.70;;;;;;4988380;28;19930;-60
2023/09/29 09:49:31;;;;;;;;;;;23.00;59.70;;;;;;4990387;28;19929;-61
2023/09/29 09:52:00;;;;;;;;;;;23.00;59.60;;;;;;4991822;28;19929;-61
2023/09/29 09:54:28;;;;;;;;;;;23.00;59.70;;;;;;4990833;28;19929;-59
2023/09/29 09:56:56;;;;;;;;;;;23.10;59.80;;;;;;4989096;28;19957;-59
2023/09/29 09:59:24;;;;;;;;;;;23.10;60.00;;;;;;4991292;28;19926;-60
2023/09/29 10:01:52;;;;;;;;;;;23.10;60.40;;;;;;4987581;28;19929;-58
2023/09/29 10:04:19;;;;;;;;;;;23.00;60.40;;;;;;4991353;28;19926;-57
2023/09/29 10:06:46;;;;;;;;;;;23.10;60.50;;;;;;4990689;28;19934;-63
2023/09/29 10:09:13;;;;;;;;;;;23.10;60.40;;;;;;4982554;28;19934;-61
2023/09/29 10:11:42;;;;;;;;;;;23.00;60.20;;;;;;4973646;28;19938;-63
2023/09/29 10:14:09;;;;;;;;;;;23.00;60.30;;;;;;4971418;28;19934;-62
2023/09/29 10:16:36;;;;;;;;;;;23.10;60.40;;;;;;4985484;28;19995;-65
2023/09/29 10:19:06;;;;;;;;;;;23.10;60.40;;;;;;5003245;28;19934;-61
2023/09/29 10:21:41;;;;;;;;;;;23.10;60.40;;;;;;4991089;28;19934;-62
2023/09/29 10:24:12;;;;;;;;;;;23.10;60.30;;;;;;4989685;28;19933;-62
2023/09/29 10:26:42;;;;;;;;;;;23.10;60.30;;;;;;4987872;28;19926;-62
2023/09/29 10:29:10;;;;;;;;;;;23.10;60.30;;;;;;4988125;28;19953;-60
2023/09/29 10:31:37;;;;;;;;;;;23.20;60.30;;;;;;5004070;28;20016;-63
2023/09/29 10:34:05;;;;;;;;;;;23.10;60.30;;;;;;4990270;28;19925;-61
2023/09/29 10:36:32;;;;;;;;;;;23.20;60.30;;;;;;4989921;28;19941;-64
2023/09/29 10:39:03;;;;;;;;;;;23.20;60.30;;;;;;4988392;28;19930;-58
2023/09/29 10:41:32;;;;;;;;;;;23.20;60.30;;;;;;4989584;28;19940;-59
2023/09/29 10:43:59;;;;;;;;;;;23.20;60.30;;;;;;4989000;28;19932;-60
2023/09/29 10:46:26;;;;;;;;;;;23.20;60.30;;;;;;4991624;28;20173;-60
2023/09/29 10:48:54;;;;;;;;;;;23.20;60.20;;;;;;4989982;28;19942;-60
2023/09/29 10:51:23;;;;;;;;;;;23.20;60.30;;;;;;4991635;28;19926;-62
2023/09/29 10:53:49;;;;;;;;;;;23.20;60.70;;;;;;4991152;28;19930;-58
2023/09/29 10:56:18;;;;;;;;;;;23.20;60.80;;;;;;4990009;28;19937;-62
2023/09/29 10:58:45;;;;;;;;;;;23.20;60.70;;;;;;5002290;28;19937;-59
2023/09/29 11:01:12;;;;;;;;;;;23.20;60.60;;;;;;5000688;28;19969;-63
2023/09/29 11:03:39;;;;;;;;;;;23.20;60.60;;;;;;4989607;28;19930;-62
2023/09/29 11:06:09;;;;;;;;;;;23.10;60.50;;;;;;4990313;28;19929;-60
2023/09/29 11:08:39;;;;;;;;;;;23.10;60.40;;;;;;5003140;28;20028;-58
2023/09/29 11:11:06;;;;;;;;;;;23.10;60.40;;;;;;4989821;28;19926;-60
2023/09/29 11:13:33;;;;;;;;;;;23.10;60.40;;;;;;4987368;28;19941;-64
2023/09/29 11:16:00;;;;;;;;;;;23.10;60.40;;;;;;5003778;28;19933;-61
2023/09/29 11:18:27;;;;;;;;;;;23.10;60.30;;;;;;4990174;28;19925;-57
2023/09/29 11:20:54;;;;;;;;;;;23.10;60.30;;;;;;4987479;28;19933;-58
2023/09/29 11:23:20;;;;;;;;;;;23.10;60.30;;;;;;4992046;28;20151;-58
2023/09/29 11:25:49;;;;;;;;;;;23.10;60.40;;;;;;4990551;28;19926;-59
2023/09/29 11:28:16;;;;;;;;;;;23.20;60.50;;;;;;4990415;28;19929;-60
2023/09/29 11:30:43;;;;;;;;;;;23.20;60.50;;;;;;4985089;28;19933;-62
2023/09/29 11:33:10;;;;;;;;;;;23.20;60.50;;;;;;4988175;28;19964;-59
2023/09/29 11:35:37;;;;;;;;;;;23.20;60.50;;;;;;4988755;28;19938;-65
2023/09/29 11:38:05;;;;;;;;;;;23.30;60.60;;;;;;4990597;28;19929;-61
2023/09/29 11:40:33;;;;;;;;;;;23.20;60.50;;;;;;4989230;28;19934;-62
2023/09/29 11:43:02;;;;;;;;;;;23.20;60.50;;;;;;5005095;28;19973;-57
2023/09/29 11:45:28;;;;;;;;;;;23.20;60.50;;;;;;4989956;28;19926;-61
2023/09/29 11:47:55;;;;;;;;;;;23.20;60.50;;;;;;4988506;28;19925;-62
2023/09/29 11:50:22;;;;;;;;;;;23.30;60.60;;;;;;5005849;28;19973;-58
2023/09/29 11:52:49;;;;;;;;;;;23.30;60.70;;;;;;4989276;28;19932;-63
2023/09/29 11:55:16;;;;;;;;;;;23.30;60.60;;;;;;4990735;28;19926;-59
2023/09/29 11:57:42;;;;;;;;;;;23.30;60.70;;;;;;4988935;28;19930;-57
2023/09/29 12:00:11;;;;;;;;;;;23.30;60.80;;;;;;4990519;28;19930;-60
2023/09/29 12:02:39;;;;;;;;;;;23.30;60.70;;;;;;4983942;28;19932;-60
2023/09/29 12:05:07;;;;;;;;;;;23.40;60.70;;;;;;5006084;28;20021;-59
2023/09/29 12:07:35;;;;;;;;;;;23.30;60.80;;;;;;5002729;28;19925;-60
2023/09/29 12:10:02;;;;;;;;;;;23.30;60.70;;;;;;4990191;28;19961;-59
2023/09/29 12:12:28;;;;;;;;;;;23.30;60.80;;;;;;4991189;28;19960;-63
2023/09/29 12:14:55;;;;;;;;;;;23.40;60.90;;;;;;4988823;28;20000;-61
2023/09/29 12:17:23;;;;;;;;;;;23.30;60.80;;;;;;4989934;28;19996;-58
2023/09/29 12:19:50;;;;;;;;;;;23.40;60.90;;;;;;4986293;28;19929;-59
2023/09/29 12:22:18;;;;;;;;;;;23.40;60.80;;;;;;5006360;28;19926;-60
2023/09/29 12:24:45;;;;;;;;;;;23.40;60.80;;;;;;4989119;28;19932;-58
2023/09/29 12:27:11;;;;;;;;;;;23.40;60.90;;;;;;4991786;28;20454;-63
2023/09/29 12:29:38;;;;;;;;;;;23.40;60.80;;;;;;4986966;28;19930;-61
2023/09/29 12:32:05;;;;;;;;;;;23.40;60.90;;;;;;4991724;28;19925;-60
2023/09/29 12:34:34;;;;;;;;;;;23.40;60.90;;;;;;4988143;28;19934;-64
2023/09/29 12:37:01;;;;;;;;;;;23.40;60.90;;;;;;4988478;28;19925;-59
2023/09/29 12:39:28;;;;;;;;;;;23.40;60.90;;;;;;4988061;28;19977;-60
2023/09/29 12:41:55;;;;;;;;;;;23.40;60.90;;;;;;4988586;28;19926;-61
2023/09/29 12:44:22;;;;;;;;;;;23.40;60.90;;;;;;5004034;28;19979;-63
2023/09/29 12:46:50;;;;;;;;;;;23.40;60.90;;;;;;4989321;28;19926;-59
2023/09/29 12:49:17;;;;;;;;;;;23.40;60.90;;;;;;4989192;28;19972;-59
2023/09/29 12:51:45;;;;;;;;;;;23.40;60.90;;;;;;4985677;28;19968;-63
2023/09/29 12:54:12;;;;;;;;;;;23.50;61.00;;;;;;4990365;28;19926;-66
2023/09/29 12:56:39;;;;;;;;;;;23.50;61.00;;;;;;4989599;28;19937;-60
2023/09/29 12:59:06;;;;;;;;;;;23.50;61.10;;;;;;4986795;28;19926;-60
2023/09/29 13:01:33;;;;;;;;;;;23.50;61.10;;;;;;4990535;28;19940;-59
2023/09/29 13:04:00;;;;;;;;;;;23.50;61.10;;;;;;4989382;28;20008;-61
2023/09/29 13:06:27;;;;;;;;;;;23.50;61.20;;;;;;5002537;28;20292;-60
2023/09/29 13:08:55;;;;;;;;;;;23.50;61.10;;;;;;5003661;28;19929;-58
2023/09/29 13:11:21;;;;;;;;;;;23.50;61.90;;;;;;4988803;28;19926;-60
2023/09/29 13:13:48;;;;;;;;;;;23.50;61.10;;;;;;5004382;28;19926;-64
2023/09/29 13:16:16;;;;;;;;;;;23.50;61.10;;;;;;5003120;28;19929;-59
2023/09/29 13:18:43;;;;;;;;;;;23.50;61.10;;;;;;5003639;28;19926;-61
2023/09/29 13:21:10;;;;;;;;;;;23.50;61.00;;;;;;4990402;28;19926;-58
2023/09/29 13:23:37;;;;;;;;;;;23.50;61.10;;;;;;4992486;28;19926;-60
2023/09/29 13:26:05;;;;;;;;;;;23.50;61.10;;;;;;4991781;28;19930;-58
2023/09/29 13:28:32;;;;;;;;;;;23.60;61.20;;;;;;4991869;28;19932;-59
2023/09/29 13:30:58;;;;;;;;;;;23.60;61.30;;;;;;4991661;28;19977;-61
2023/09/29 13:33:27;;;;;;;;;;;23.60;61.30;;;;;;4992681;28;19949;-59
2023/09/29 13:35:54;;;;;;;;;;;23.60;61.30;;;;;;4992847;28;19926;-62
2023/09/29 13:38:20;;;;;;;;;;;23.60;61.30;;;;;;4992744;28;19980;-63
2023/09/29 13:40:50;;;;;;;;;;;23.60;61.30;;;;;;4990548;28;19926;-65
2023/09/29 13:43:19;;;;;;;;;;;23.60;61.30;;;;;;5002875;28;19922;-57
2023/09/29 13:45:45;;;;;;;;;;;23.60;61.30;;;;;;4992349;28;19930;-61
2023/09/29 13:48:12;;;;;;;;;;;23.60;61.30;;;;;;4992700;28;19930;-68
2023/09/29 13:50:39;;;;;;;;;;;23.60;61.30;;;;;;4992061;28;19925;-61
2023/09/29 13:53:06;;;;;;;;;;;23.60;61.30;;;;;;4992301;28;19930;-58
2023/09/29 13:55:33;;;;;;;;;;;23.60;61.30;;;;;;4993669;28;19940;-62
2023/09/29 13:57:59;;;;;;;;;;;23.60;61.30;;;;;;4991687;28;19941;-59
2023/09/29 14:00:28;;;;;;;;;;;23.60;61.30;;;;;;5007680;28;19972;-59
2023/09/29 14:02:54;;;;;;;;;;;23.60;61.30;;;;;;4989517;28;19929;-64
2023/09/29 14:05:22;;;;;;;;;;;23.60;61.30;;;;;;4992356;28;19949;-59
2023/09/29 14:07:49;;;;;;;;;;;23.60;61.30;;;;;;4992091;28;19961;-60
2023/09/29 14:10:18;;;;;;;;;;;23.60;61.30;;;;;;5007556;28;19926;-60
2023/09/29 14:12:45;;;;;;;;;;;23.60;61.90;;;;;;4987465;28;19933;-59
2023/09/29 14:15:11;;;;;;;;;;;23.60;62.20;;;;;;4990960;28;19926;-59
2023/09/29 14:17:40;;;;;;;;;;;23.60;62.30;;;;;;4991147;28;19936;-59